Re : Ja, dat lijkt een verregende dag

Bericht van: Wouter (Mol) , 26-06-2007 15:33 

Meer droog dan regen idd. Maar er bestaan bijna geen dagen dat het meer regent (in minuten) dan droog is. Iedereen hier zal dit als een verregende dag aanzien. Trouwens: de info die je vroeg:

**************************************************************************************************************************
* U C L Institut d'Astronomie et de Geophysique G. Lemaitre (ASTR) LOUVAIN-LA-NEUVE (Belgium) *
**************************************************************************************************************************
--Timestamp--- Temp Chill HIndex Humid Dewpt Wind HiWind WindDir Rain Barom Solar ET UV
-------------- ---- ----- ------ ----- ----- ---- ------ ------- ---- ----- ----- -- --
20070626 00:10 12.9 12.9 12.9 80 9.6 11 26 225 0.00 995.533 0 0.000 0
20070626 00:20 12.8 12.8 12.8 80 9.5 10 23 225 0.00 995.296 0 0.000 0
20070626 00:30 12.8 12.8 12.8 81 9.6 8 24 225 0.00 995.025 0 0.000 0
20070626 00:40 12.5 12.5 12.5 82 9.5 13 35 225 0.00 995.025 0 0.000 0
20070626 00:50 12.3 12.3 12.3 83 9.5 11 31 225 0.00 994.958 0 0.000 0
20070626 01:00 12.2 12.2 12.2 84 9.5 13 29 225 0.00 994.517 0 0.025 0
20070626 01:10 12.1 12.1 12.1 84 9.5 13 23 225 0.00 994.517 0 0.000 0
20070626 01:20 11.9 11.9 11.9 85 9.5 14 31 202 0.00 994.416 0 0.000 0
20070626 01:30 11.8 11.8 11.8 86 9.5 16 31 202 0.25 994.009 0 0.000 0
20070626 01:40 11.6 11.6 11.6 88 9.7 11 27 202 0.00 994.009 0 0.000 0
20070626 01:50 11.4 11.4 11.4 90 9.9 13 24 202 0.25 993.908 0 0.000 0
20070626 02:00 11.3 11.3 11.3 92 10.0 13 27 202 0.00 993.468 0 0.025 0
20070626 02:10 11.3 11.3 11.3 92 10.0 13 29 202 0.00 993.468 0 0.000 0
20070626 02:20 11.4 11.4 11.4 92 10.1 13 27 202 0.00 993.434 0 0.000 0
20070626 02:30 11.4 11.4 11.4 93 10.4 13 24 202 0.00 992.994 0 0.000 0
20070626 02:40 11.6 11.6 11.6 93 10.5 14 32 202 0.25 992.994 0 0.000 0
20070626 02:50 11.6 11.6 11.6 92 10.4 13 27 202 0.00 992.926 0 0.000 0
20070626 03:00 11.8 11.8 11.8 92 10.5 10 21 202 0.00 992.926 0 0.000 0
20070626 03:10 11.8 11.8 11.8 92 10.5 11 24 202 0.00 992.926 0 0.000 0
20070626 03:20 11.8 11.8 11.8 92 10.6 8 21 225 0.00 992.790 0 0.000 0
20070626 03:30 11.8 11.8 11.8 91 10.4 10 21 225 0.00 992.486 0 0.000 0
20070626 03:40 11.8 11.8 11.8 91 10.4 6 16 225 0.00 992.486 0 0.000 0
20070626 03:50 11.8 11.8 11.8 91 10.4 6 19 225 0.00 992.350 0 0.000 0
20070626 04:00 11.8 11.8 11.8 91 10.4 10 23 225 0.00 992.316 0 0.000 0
20070626 04:10 11.8 11.8 11.8 92 10.5 8 19 225 0.76 992.316 0 0.000 0
20070626 04:20 11.7 11.7 11.7 92 10.5 6 13 270 0.25 992.384 0 0.000 0
20070626 04:30 11.8 11.8 11.8 92 10.5 6 16 270 0.00 992.384 0 0.000 0
20070626 04:40 11.8 11.8 11.8 93 10.7 8 14 270 0.00 992.384 0 0.000 0
20070626 04:50 11.8 11.8 11.8 93 10.7 10 23 270 0.00 992.418 0 0.000 0
20070626 05:00 11.8 11.8 11.8 93 10.7 13 26 270 0.00 992.452 0 0.000 0
20070626 05:10 11.8 11.8 11.8 93 10.7 10 27 270 0.25 992.452 0 0.000 0
20070626 05:20 11.8 11.8 11.8 94 10.8 10 19 270 0.00 992.452 0 0.000 0
20070626 05:30 11.7 11.7 11.7 94 10.8 13 24 270 0.00 992.756 0 0.000 0
20070626 05:40 11.7 11.7 11.7 94 10.8 13 24 270 0.00 992.756 0 0.000 0
20070626 05:50 11.7 11.7 11.7 94 10.8 13 24 270 0.00 992.892 0 0.000 0
20070626 06:00 11.8 11.8 11.8 94 10.8 14 27 292 0.00 992.960 0 0.000 0
20070626 06:10 11.8 11.8 11.8 94 10.8 13 23 270 0.00 992.960 0 0.000 0
20070626 06:20 11.8 11.8 11.8 93 10.7 13 26 292 0.00 993.298 2 0.000 0
20070626 06:30 11.8 11.8 11.8 93 10.7 14 27 292 0.00 993.501 10 0.000 0
20070626 06:40 11.8 11.8 11.8 93 10.7 13 29 292 0.00 993.501 11 0.000 0
20070626 06:50 11.8 11.8 11.8 93 10.7 13 21 292 0.00 993.806 15 0.000 0
20070626 07:00 11.9 11.9 11.9 93 10.8 14 32 270 0.00 993.942 28 0.025 0
20070626 07:10 12.0 12.0 12.0 92 10.7 18 34 270 0.00 993.942 28 0.000 0
20070626 07:20 12.1 12.1 12.1 92 10.8 16 35 270 0.00 994.077 40 0.000 0
20070626 07:30 12.1 12.1 12.1 92 10.8 16 29 270 0.00 994.009 38 0.000 0
20070626 07:40 11.9 11.9 11.9 92 10.7 19 42 270 0.00 994.009 18 0.000 0
20070626 07:50 11.8 11.8 11.8 92 10.6 18 31 270 0.51 994.077 17 0.000 0
20070626 08:00 11.8 11.8 11.8 93 10.7 19 39 270 0.00 993.976 21 0.025 0
20070626 08:10 11.8 11.8 11.8 93 10.7 21 53 270 0.00 993.976 14 0.000 0
20070626 08:20 11.8 11.8 11.8 93 10.7 24 53 270 0.51 994.111 9 0.000 0
20070626 08:30 11.9 11.9 11.9 93 10.8 23 40 270 0.00 994.484 12 0.000 0
20070626 08:40 12.1 12.1 12.1 94 11.2 21 37 292 0.00 994.484 16 0.000 0
20070626 08:50 12.3 12.3 12.3 93 11.2 24 51 292 0.25 994.619 16 0.000 0
20070626 09:00 12.3 12.3 12.3 92 11.1 24 43 292 0.25 995.025 16 0.025 0
20070626 09:10 12.3 12.3 12.3 92 11.1 26 42 292 0.00 995.025 16 0.000 0
20070626 09:20 12.4 12.4 12.4 92 11.2 23 50 292 0.00 995.567 24 0.000 0
20070626 09:30 12.6 12.6 12.6 92 11.3 21 39 315 0.00 996.007 72 0.000 0
20070626 09:40 12.7 12.7 12.7 91 11.2 23 40 292 0.00 996.007 51 0.000 0
20070626 09:50 12.7 12.7 12.7 91 11.2 19 37 292 0.00 996.448 36 0.000 0
20070626 10:00 12.6 12.6 12.6 91 11.2 26 48 315 0.25 996.922 54 0.051 0
20070626 10:10 12.5 12.5 12.5 91 11.1 24 53 315 0.00 996.922 60 0.000 0
20070626 10:20 12.5 12.5 12.5 90 10.9 24 39 315 0.00 997.565 58 0.000 0
20070626 10:30 12.6 12.6 12.6 90 11.0 21 37 315 0.00 997.768 41 0.000 0
20070626 10:40 12.6 12.6 12.6 90 11.0 19 40 315 0.00 997.768 86 0.000 0
20070626 10:50 12.8 12.8 12.8 88 10.8 19 43 315 0.00 998.412 55 0.000 0
20070626 11:00 12.6 12.6 12.6 89 10.8 21 42 315 0.25 998.784 18 0.051 0
20070626 11:10 12.4 12.4 12.4 90 10.8 19 39 315 0.00 998.784 71 0.000 0
20070626 11:20 12.7 12.7 12.7 89 10.9 18 31 315 0.00 999.326 67 0.000 0
20070626 11:30 12.5 12.5 12.5 89 10.7 21 45 292 0.00 999.563 78 0.000 0
20070626 11:40 12.8 12.8 12.8 88 10.9 19 45 292 0.00 999.563 139 0.000 0
20070626 11:50 12.9 12.9 12.9 87 10.8 23 47 292 0.00 999.902 142 0.000 0
20070626 12:00 12.8 12.8 12.8 86 10.5 24 39 292 0.00 1000.274 100 0.076 0
20070626 12:10 13.1 13.1 13.1 86 10.8 19 39 292 0.00 1000.274 109 0.000 0
20070626 12:20 13.1 13.1 13.1 84 10.5 23 43 315 0.00 1000.410 144 0.000 0
20070626 12:30 12.9 12.9 12.9 84 10.3 21 39 292 0.00 1000.850 68 0.000 0
20070626 12:40 13.0 13.0 13.0 83 10.2 23 47 315 0.00 1000.850 80 0.000 0
20070626 12:50 12.5 12.5 12.5 86 10.2 18 32 315 0.51 1001.392 69 0.000 0
20070626 13:00 12.3 12.3 12.3 89 10.5 19 37 292 0.00 1001.460 160 0.076 0
20070626 13:10 12.7 12.7 12.7 85 10.2 24 48 292 0.00 1001.460 202 0.000 0
20070626 13:20 13.1 13.1 13.1 83 10.3 21 39 315 0.00 1001.866 149 0.000 0
20070626 13:30 13.2 13.2 13.2 82 10.2 23 37 315 0.00 1001.967 140 0.000 0
20070626 13:40 13.3 13.3 13.3 80 10.0 23 37 315 0.00 1001.967 113 0.000 0
20070626 13:50 13.3 13.3 13.3 80 10.0 21 45 270 0.00 1002.069 90 0.000 0
20070626 14:00 12.1 12.1 12.1 86 9.8 21 39 315 1.52 1002.645 38 0.102 0
20070626 14:10 11.4 11.4 11.4 89 9.7 21 39 315 0.76 1002.645 53 0.000 0
20070626 14:20 11.6 11.6 11.6 91 10.1 14 31 315 0.25 1002.950 133 0.000 0
20070626 14:30 11.9 11.9 11.9 91 10.5 16 32 315 0.00 1003.085 139 0.000 0
20070626 14:40 12.0 12.0 12.0 91 10.6 18 37 292 0.00 1003.085 73 0.000 0
20070626 14:50 11.7 11.7 11.7 89 10.0 19 37 292 0.00 1003.254 32 0.000 0
20070626 15:00 11.4 11.4 11.4 89 9.6 21 40 292 0.51 1003.593 25 0.051 0
20070626 15:10 11.1 11.1 11.1 90 9.5 16 31 292 0.51 1003.593 37 0.000 0
20070626 15:20 10.9 10.9 10.9 91 9.5 14 31 292 0.25 1003.661 45 0.000 0
20070626 15:30 10.9 10.9 10.9 91 9.5 16 31 315 0.25 1003.796 64 0.000 0

Wouter

  Re : Gent opklaringen nu  
Peter (Mariakerke bij Gent) ( 7m) -- 26-06-2007 15:05
  Ja, en temperaturen schieten omhoog!  
Joris (Mendonk (Gent)) -- 26-06-2007 15:08
Ja, dat lijkt een verregende dag   ( 230)
Ruben (Neeroeteren) -- 26-06-2007 15:29
Re : Ja, dat lijkt een verregende dag   ( 117)
Wouter (Mol) ( 22m) -- 26-06-2007 15:33
Re : Ja, dat lijkt een verregende dag   ( 71)
Ruben (Neeroeteren) -- 26-06-2007 16:23
Re : Ja, dat lijkt een verregende dag   ( 45)
Johan (Nieuwmoer) ( 16m) -- 26-06-2007 19:02